Time;durP1;ratioP1;P1;durP2;ratioP2;P2;SDS_P1;SDS_P2;PMS_P1;PMS_P2;Temp;Humidity;BMP_temperature;BMP_pressure;BME280_temperature;BME280_humidity;BME280_pressure;Samples;Min_cycle;Max_cycle;Signal;HPM_P1;HPM_P2
2023/07/19 00:00:06;;;;;;;0.00;0.00;;;;;;;;;;1745478;28;20221;-75
2023/07/19 00:00:57;;;;;;;0.00;0.00;;;;;;;;;;1743771;28;20283;-75
2023/07/19 00:01:49;;;;;;;0.00;0.00;;;;;;;;;;1749535;28;20197;-75
2023/07/19 00:02:40;;;;;;;0.00;0.00;;;;;;;;;;1752525;28;20652;-75
2023/07/19 00:03:32;;;;;;;0.00;0.00;;;;;;;;;;1751557;28;20229;-75
2023/07/19 00:04:23;;;;;;;0.00;0.00;;;;;;;;;;1752405;28;20347;-75
2023/07/19 00:05:15;;;;;;;0.00;0.00;;;;;;;;;;1751588;28;20623;-75
2023/07/19 00:06:06;;;;;;;0.00;0.00;;;;;;;;;;1754246;28;20638;-75
2023/07/19 00:06:57;;;;;;;0.00;0.00;;;;;;;;;;1752775;28;20256;-75
2023/07/19 00:07:49;;;;;;;0.00;0.00;;;;;;;;;;1753868;28;20197;-75
2023/07/19 00:08:40;;;;;;;0.00;0.00;;;;;;;;;;1752453;28;20323;-75
2023/07/19 00:09:33;;;;;;;0.00;0.00;;;;;;;;;;1753580;28;20239;-75
2023/07/19 00:10:25;;;;;;;0.00;0.00;;;;;;;;;;1749649;28;20201;-76
2023/07/19 00:11:17;;;;;;;0.00;0.00;;;;;;;;;;1746436;28;20333;-75
2023/07/19 00:12:08;;;;;;;0.00;0.00;;;;;;;;;;1746687;28;20206;-75
2023/07/19 00:13:00;;;;;;;0.00;0.00;;;;;;;;;;1745355;28;20311;-75
2023/07/19 00:13:51;;;;;;;0.00;0.00;;;;;;;;;;1746580;28;20767;-75
2023/07/19 00:14:42;;;;;;;0.00;0.00;;;;;;;;;;1746056;28;20202;-75
2023/07/19 00:15:34;;;;;;;0.00;0.00;;;;;;;;;;1745111;28;20236;-75
2023/07/19 00:16:27;;;;;;;0.00;0.00;;;;;;;;;;1746181;28;20248;-75
2023/07/19 00:17:19;;;;;;;0.00;0.00;;;;;;;;;;1746330;28;20583;-75
2023/07/19 00:18:11;;;;;;;0.00;0.00;;;;;;;;;;1746452;28;20340;-75
2023/07/19 00:19:03;;;;;;;0.00;0.00;;;;;;;;;;1743686;28;20262;-75
2023/07/19 00:19:54;;;;;;;0.00;0.00;;;;;;;;;;1746054;28;20650;-75
2023/07/19 00:20:46;;;;;;;0.00;0.00;;;;;;;;;;1745038;28;20225;-76
2023/07/19 00:21:37;;;;;;;0.00;0.00;;;;;;;;;;1746007;28;20305;-75
2023/07/19 00:22:29;;;;;;;0.00;0.00;;;;;;;;;;1746637;28;20194;-75
2023/07/19 00:23:20;;;;;;;0.00;0.00;;;;;;;;;;1746013;28;20525;-76
2023/07/19 00:24:12;;;;;;;0.00;0.00;;;;;;;;;;1746839;28;20202;-75
2023/07/19 00:25:05;;;;;;;0.00;0.00;;;;;;;;;;1743880;28;20293;-75
2023/07/19 00:25:57;;;;;;;0.00;0.00;;;;;;;;;;1744740;28;20261;-76
2023/07/19 00:26:48;;;;;;;0.00;0.00;;;;;;;;;;1745721;28;20291;-75
2023/07/19 00:27:40;;;;;;;0.00;0.00;;;;;;;;;;1746217;28;20202;-75
2023/07/19 00:28:32;;;;;;;0.00;0.00;;;;;;;;;;1746219;28;20194;-75
2023/07/19 00:29:23;;;;;;;0.00;0.00;;;;;;;;;;1746219;28;20293;-75
2023/07/19 00:30:14;;;;;;;0.00;0.00;;;;;;;;;;1744789;28;20271;-75
2023/07/19 00:31:06;;;;;;;0.00;0.00;;;;;;;;;;1746968;28;20183;-75
2023/07/19 00:31:57;;;;;;;0.00;0.00;;;;;;;;;;1745876;28;20293;-74
2023/07/19 00:32:48;;;;;;;0.00;0.00;;;;;;;;;;1746659;28;20213;-74
2023/07/19 00:33:40;;;;;;;0.00;0.00;;;;;;;;;;1745741;28;20205;-74
2023/07/19 00:34:32;;;;;;;0.00;0.00;;;;;;;;;;1746519;28;20310;-74
2023/07/19 00:35:24;;;;;;;0.00;0.00;;;;;;;;;;1744305;28;20203;-76
2023/07/19 00:36:15;;;;;;;0.00;0.00;;;;;;;;;;1746272;28;20214;-75
2023/07/19 00:37:07;;;;;;;0.00;0.00;;;;;;;;;;1746457;28;20230;-75
2023/07/19 00:37:58;;;;;;;0.00;0.00;;;;;;;;;;1746011;28;20617;-75
2023/07/19 00:38:50;;;;;;;0.00;0.00;;;;;;;;;;1746240;28;20206;-75
2023/07/19 00:39:41;;;;;;;0.00;0.00;;;;;;;;;;1745675;28;20208;-75
2023/07/19 00:40:35;;;;;;;0.00;0.00;;;;;;;;;;1744683;28;21212;-76
2023/07/19 00:41:26;;;;;;;0.00;0.00;;;;;;;;;;1746147;28;20281;-75
2023/07/19 00:42:18;;;;;;;0.00;0.00;;;;;;;;;;1746148;28;20535;-75
2023/07/19 00:43:10;;;;;;;0.00;0.00;;;;;;;;;;1746204;28;20622;-75
2023/07/19 00:44:01;;;;;;;0.00;0.00;;;;;;;;;;1746355;28;20687;-75
2023/07/19 00:44:53;;;;;;;0.00;0.00;;;;;;;;;;1746047;28;20199;-75
2023/07/19 00:45:45;;;;;;;0.00;0.00;;;;;;;;;;1744759;28;20685;-75
2023/07/19 00:46:37;;;;;;;0.00;0.00;;;;;;;;;;1745800;28;20472;-75
2023/07/19 00:47:29;;;;;;;0.00;0.00;;;;;;;;;;1746409;28;20348;-74
2023/07/19 00:48:21;;;;;;;0.00;0.00;;;;;;;;;;1745881;28;20202;-74
2023/07/19 00:49:13;;;;;;;0.00;0.00;;;;;;;;;;1745205;28;20302;-75
2023/07/19 00:50:04;;;;;;;0.00;0.00;;;;;;;;;;1746329;28;20604;-75
2023/07/19 00:50:57;;;;;;;0.00;0.00;;;;;;;;;;1751046;28;20233;-74
2023/07/19 00:51:49;;;;;;;0.00;0.00;;;;;;;;;;1752759;28;20256;-75
2023/07/19 00:52:40;;;;;;;0.00;0.00;;;;;;;;;;1751537;28;20201;-74
2023/07/19 00:53:33;;;;;;;0.00;0.00;;;;;;;;;;1751640;28;20285;-75
2023/07/19 00:54:25;;;;;;;0.00;0.00;;;;;;;;;;1753095;28;20236;-74
2023/07/19 00:55:17;;;;;;;0.00;0.00;;;;;;;;;;1750856;28;20206;-75
2023/07/19 00:56:09;;;;;;;0.00;0.00;;;;;;;;;;1753475;28;20285;-75
2023/07/19 00:57:03;;;;;;;0.00;0.00;;;;;;;;;;1752031;28;20276;-74
2023/07/19 00:57:54;;;;;;;0.00;0.00;;;;;;;;;;1752742;28;20242;-74
2023/07/19 00:58:46;;;;;;;0.00;0.00;;;;;;;;;;1752634;28;20539;-75
2023/07/19 00:59:38;;;;;;;0.00;0.00;;;;;;;;;;1752298;28;20679;-74
2023/07/19 01:00:29;;;;;;;0.00;0.00;;;;;;;;;;1751327;28;20228;-74
2023/07/19 01:01:22;;;;;;;0.00;0.00;;;;;;;;;;1753008;28;20886;-75
2023/07/19 01:02:13;;;;;;;0.00;0.00;;;;;;;;;;1752914;28;20202;-74
2023/07/19 01:03:04;;;;;;;0.00;0.00;;;;;;;;;;1752365;28;20212;-74
2023/07/19 01:03:56;;;;;;;0.00;0.00;;;;;;;;;;1753077;28;20210;-74
2023/07/19 01:04:47;;;;;;;0.00;0.00;;;;;;;;;;1752563;28;20293;-74
2023/07/19 01:05:39;;;;;;;0.00;0.00;;;;;;;;;;1751818;28;20317;-75
2023/07/19 01:06:31;;;;;;;0.00;0.00;;;;;;;;;;1752811;28;20198;-75
2023/07/19 01:07:22;;;;;;;0.00;0.00;;;;;;;;;;1753106;28;20289;-75
2023/07/19 01:08:14;;;;;;;0.00;0.00;;;;;;;;;;1752466;28;20210;-74
2023/07/19 01:09:05;;;;;;;0.00;0.00;;;;;;;;;;1750793;28;20292;-74
2023/07/19 01:09:57;;;;;;;0.00;0.00;;;;;;;;;;1752055;28;20197;-74
2023/07/19 01:10:48;;;;;;;0.00;0.00;;;;;;;;;;1751638;28;20559;-74
2023/07/19 01:11:41;;;;;;;0.00;0.00;;;;;;;;;;1752254;28;20193;-74
2023/07/19 01:12:33;;;;;;;0.00;0.00;;;;;;;;;;1753286;28;20604;-74
2023/07/19 01:13:24;;;;;;;0.00;0.00;;;;;;;;;;1752060;28;20292;-74
2023/07/19 01:14:16;;;;;;;0.00;0.00;;;;;;;;;;1753051;28;20251;-74
2023/07/19 01:15:09;;;;;;;0.00;0.00;;;;;;;;;;1752947;28;20296;-74
2023/07/19 01:16:00;;;;;;;0.00;0.00;;;;;;;;;;1750817;28;20731;-73
2023/07/19 01:16:52;;;;;;;0.00;0.00;;;;;;;;;;1752800;28;20523;-73
2023/07/19 01:17:43;;;;;;;0.00;0.00;;;;;;;;;;1753126;28;20239;-73
2023/07/19 01:18:35;;;;;;;0.00;0.00;;;;;;;;;;1751831;28;20217;-73
2023/07/19 01:19:27;;;;;;;0.00;0.00;;;;;;;;;;1753028;28;20232;-73
2023/07/19 01:20:19;;;;;;;0.00;0.00;;;;;;;;;;1751038;28;20551;-74
2023/07/19 01:21:10;;;;;;;0.00;0.00;;;;;;;;;;1753476;28;20277;-74
2023/07/19 01:22:02;;;;;;;0.00;0.00;;;;;;;;;;1752587;28;20538;-74
2023/07/19 01:22:54;;;;;;;0.00;0.00;;;;;;;;;;1752991;28;20289;-74
2023/07/19 01:23:45;;;;;;;0.00;0.00;;;;;;;;;;1752569;28;20286;-74
2023/07/19 01:24:37;;;;;;;0.00;0.00;;;;;;;;;;1752942;28;20198;-73
2023/07/19 01:25:28;;;;;;;0.00;0.00;;;;;;;;;;1751368;28;20288;-74
2023/07/19 01:26:19;;;;;;;0.00;0.00;;;;;;;;;;1752953;28;20269;-73
2023/07/19 01:27:12;;;;;;;0.00;0.00;;;;;;;;;;1752854;28;20233;-73
2023/07/19 01:28:03;;;;;;;0.00;0.00;;;;;;;;;;1752015;28;20204;-73
2023/07/19 01:28:56;;;;;;;0.00;0.00;;;;;;;;;;1753229;28;20621;-74
2023/07/19 01:29:48;;;;;;;0.00;0.00;;;;;;;;;;1752411;28;20347;-73
2023/07/19 01:30:40;;;;;;;0.00;0.00;;;;;;;;;;1751675;28;20275;-72
2023/07/19 01:31:31;;;;;;;0.00;0.00;;;;;;;;;;1752751;28;20362;-72
2023/07/19 01:32:22;;;;;;;0.00;0.00;;;;;;;;;;1752914;28;20202;-72
2023/07/19 01:33:14;;;;;;;0.00;0.00;;;;;;;;;;1752007;28;20592;-72
2023/07/19 01:34:05;;;;;;;0.00;0.00;;;;;;;;;;1752657;28;20304;-73
2023/07/19 01:34:56;;;;;;;0.00;0.00;;;;;;;;;;1751771;28;20623;-72
2023/07/19 01:35:48;;;;;;;0.00;0.00;;;;;;;;;;1751648;28;20225;-72
2023/07/19 01:36:39;;;;;;;0.00;0.00;;;;;;;;;;1751254;28;20362;-72
2023/07/19 01:37:30;;;;;;;0.00;0.00;;;;;;;;;;1753141;28;20293;-72
2023/07/19 01:38:23;;;;;;;0.00;0.00;;;;;;;;;;1751826;28;20686;-73
2023/07/19 01:39:14;;;;;;;0.00;0.00;;;;;;;;;;1753258;28;20300;-72
2023/07/19 01:40:07;;;;;;;0.00;0.00;;;;;;;;;;1749848;28;20198;-72
2023/07/19 01:40:58;;;;;;;0.00;0.00;;;;;;;;;;1750989;28;20649;-73
2023/07/19 01:41:50;;;;;;;0.00;0.00;;;;;;;;;;1752490;28;20198;-73
2023/07/19 01:42:41;;;;;;;0.00;0.00;;;;;;;;;;1752891;28;20687;-73
2023/07/19 01:43:33;;;;;;;0.00;0.00;;;;;;;;;;1751541;28;20689;-73
2023/07/19 01:44:25;;;;;;;0.00;0.00;;;;;;;;;;1752932;28;20210;-73
2023/07/19 01:45:16;;;;;;;0.00;0.00;;;;;;;;;;1749836;28;20300;-73
2023/07/19 01:46:09;;;;;;;0.00;0.00;;;;;;;;;;1746286;28;20210;-73
2023/07/19 01:47:00;;;;;;;0.00;0.00;;;;;;;;;;1745302;28;20325;-73
2023/07/19 01:47:51;;;;;;;0.00;0.00;;;;;;;;;;1746058;28;20194;-73
2023/07/19 01:48:43;;;;;;;0.00;0.00;;;;;;;;;;1745220;28;20230;-74
2023/07/19 01:49:34;;;;;;;0.00;0.00;;;;;;;;;;1745711;28;20237;-74
2023/07/19 01:50:25;;;;;;;0.00;0.00;;;;;;;;;;1745634;28;20289;-74
2023/07/19 01:51:17;;;;;;;0.00;0.00;;;;;;;;;;1752149;28;20285;-73
2023/07/19 01:52:08;;;;;;;0.00;0.00;;;;;;;;;;1752760;28;20292;-73
2023/07/19 01:53:00;;;;;;;0.00;0.00;;;;;;;;;;1751836;28;20216;-73
2023/07/19 01:53:53;;;;;;;0.00;0.00;;;;;;;;;;1752722;28;20285;-73
2023/07/19 01:54:44;;;;;;;0.00;0.00;;;;;;;;;;1751724;28;20268;-73
2023/07/19 01:55:36;;;;;;;0.00;0.00;;;;;;;;;;1748201;28;20595;-72
2023/07/19 01:56:27;;;;;;;0.00;0.00;;;;;;;;;;1745676;28;20305;-72
2023/07/19 01:57:18;;;;;;;0.00;0.00;;;;;;;;;;1745610;28;20573;-72
2023/07/19 01:58:10;;;;;;;0.00;0.00;;;;;;;;;;1745530;28;20202;-72
2023/07/19 01:59:01;;;;;;;0.00;0.00;;;;;;;;;;1745630;28;20215;-72
2023/07/19 01:59:52;;;;;;;0.00;0.00;;;;;;;;;;1745420;28;20607;-72
2023/07/19 02:00:44;;;;;;;0.00;0.00;;;;;;;;;;1748238;28;20312;-73
2023/07/19 02:01:35;;;;;;;0.00;0.00;;;;;;;;;;1751858;28;20312;-74
2023/07/19 02:02:27;;;;;;;0.00;0.00;;;;;;;;;;1752901;28;20281;-73
2023/07/19 02:03:18;;;;;;;0.00;0.00;;;;;;;;;;1751592;28;20305;-73
2023/07/19 02:04:10;;;;;;;0.00;0.00;;;;;;;;;;1753147;28;20810;-73
2023/07/19 02:05:02;;;;;;;0.10;0.10;;;;;;;;;;1751634;28;20597;-73
2023/07/19 02:05:57;;;;;;;0.00;0.00;;;;;;;;;;1744921;28;20601;-73
2023/07/19 02:06:49;;;;;;;0.00;0.00;;;;;;;;;;1745350;28;20194;-73
2023/07/19 02:07:40;;;;;;;0.00;0.00;;;;;;;;;;1745830;28;20207;-73
2023/07/19 02:08:31;;;;;;;0.00;0.00;;;;;;;;;;1745275;28;20267;-73
2023/07/19 02:09:25;;;;;;;0.00;0.00;;;;;;;;;;1745536;28;20490;-73
2023/07/19 02:10:16;;;;;;;0.00;0.00;;;;;;;;;;1744098;28;20363;-72
2023/07/19 02:11:07;;;;;;;0.00;0.00;;;;;;;;;;1746169;28;20612;-72
2023/07/19 02:11:59;;;;;;;0.00;0.00;;;;;;;;;;1745228;28;20214;-72
2023/07/19 02:12:50;;;;;;;0.00;0.00;;;;;;;;;;1745853;28;20809;-72
2023/07/19 02:13:42;;;;;;;0.00;0.00;;;;;;;;;;1745118;28;20624;-72
2023/07/19 02:14:33;;;;;;;0.00;0.00;;;;;;;;;;1745740;28;20312;-72
2023/07/19 02:15:24;;;;;;;0.00;0.00;;;;;;;;;;1744224;28;20198;-74
2023/07/19 02:16:16;;;;;;;0.00;0.00;;;;;;;;;;1745854;28;20532;-73
2023/07/19 02:17:07;;;;;;;0.00;0.00;;;;;;;;;;1745670;28;20555;-73
2023/07/19 02:17:59;;;;;;;0.00;0.00;;;;;;;;;;1745513;28;20260;-73
2023/07/19 02:18:50;;;;;;;0.00;0.00;;;;;;;;;;1745336;28;20330;-73
2023/07/19 02:19:42;;;;;;;0.00;0.00;;;;;;;;;;1745231;28;20202;-73
2023/07/19 02:20:33;;;;;;;0.00;0.00;;;;;;;;;;1747045;28;20333;-74
2023/07/19 02:21:24;;;;;;;0.00;0.00;;;;;;;;;;1751851;28;20271;-73
2023/07/19 02:22:16;;;;;;;0.00;0.00;;;;;;;;;;1752432;28;20216;-73
2023/07/19 02:23:07;;;;;;;0.00;0.00;;;;;;;;;;1752022;28;20248;-73
2023/07/19 02:23:58;;;;;;;0.00;0.00;;;;;;;;;;1752993;28;20292;-73
2023/07/19 02:24:52;;;;;;;0.00;0.00;;;;;;;;;;1752088;28;20209;-73
2023/07/19 02:25:43;;;;;;;0.00;0.00;;;;;;;;;;1746997;28;20233;-73
2023/07/19 02:26:34;;;;;;;0.00;0.00;;;;;;;;;;1745354;28;20552;-73
2023/07/19 02:27:26;;;;;;;0.00;0.00;;;;;;;;;;1745644;28;20271;-73
2023/07/19 02:28:17;;;;;;;0.00;0.00;;;;;;;;;;1745403;28;20298;-73
2023/07/19 02:29:08;;;;;;;0.00;0.00;;;;;;;;;;1744171;28;20202;-73
2023/07/19 02:30:03;;;;;;;0.00;0.00;;;;;;;;;;1745455;28;20198;-73
2023/07/19 02:30:54;;;;;;;0.00;0.00;;;;;;;;;;1747930;28;20706;-73
2023/07/19 02:31:45;;;;;;;0.00;0.00;;;;;;;;;;1751185;28;20233;-73
2023/07/19 02:32:37;;;;;;;0.00;0.00;;;;;;;;;;1752871;28;20193;-74
2023/07/19 02:33:28;;;;;;;0.00;0.00;;;;;;;;;;1751796;28;20211;-75
2023/07/19 02:34:20;;;;;;;0.00;0.00;;;;;;;;;;1752721;28;20451;-76
2023/07/19 02:35:12;;;;;;;0.00;0.00;;;;;;;;;;1751227;28;20198;-76
2023/07/19 02:36:03;;;;;;;0.00;0.00;;;;;;;;;;1743970;28;20330;-75
2023/07/19 02:36:56;;;;;;;0.00;0.00;;;;;;;;;;1745157;28;20381;-75
2023/07/19 02:37:47;;;;;;;0.00;0.00;;;;;;;;;;1745948;28;20394;-75
2023/07/19 02:38:39;;;;;;;0.00;0.00;;;;;;;;;;1744946;28;20266;-74
2023/07/19 02:39:30;;;;;;;0.00;0.00;;;;;;;;;;1745692;28;20671;-75
2023/07/19 02:40:23;;;;;;;0.00;0.00;;;;;;;;;;1734681;28;20212;-76
2023/07/19 02:41:14;;;;;;;0.00;0.00;;;;;;;;;;1752240;28;20254;-76
2023/07/19 02:42:07;;;;;;;0.00;0.00;;;;;;;;;;1751951;28;20305;-76
2023/07/19 02:42:58;;;;;;;0.00;0.00;;;;;;;;;;1751247;28;20244;-73
2023/07/19 02:43:49;;;;;;;0.00;0.00;;;;;;;;;;1752595;28;20733;-73
2023/07/19 02:44:41;;;;;;;0.00;0.00;;;;;;;;;;1751858;28;20616;-74
2023/07/19 02:45:34;;;;;;;0.00;0.00;;;;;;;;;;1750231;28;20319;-73
2023/07/19 02:46:26;;;;;;;0.00;0.00;;;;;;;;;;1751639;28;20201;-74
2023/07/19 02:47:17;;;;;;;0.00;0.00;;;;;;;;;;1752161;28;20205;-74
2023/07/19 02:48:08;;;;;;;0.00;0.00;;;;;;;;;;1751583;28;20465;-74
2023/07/19 02:49:00;;;;;;;0.00;0.00;;;;;;;;;;1752278;28;20208;-74
2023/07/19 02:49:52;;;;;;;0.00;0.00;;;;;;;;;;1751331;28;20243;-74
2023/07/19 02:50:46;;;;;;;0.00;0.00;;;;;;;;;;1751277;28;20706;-74
2023/07/19 02:51:37;;;;;;;0.00;0.00;;;;;;;;;;1751213;28;20729;-74
2023/07/19 02:52:29;;;;;;;0.00;0.00;;;;;;;;;;1752671;28;20280;-74
2023/07/19 02:53:20;;;;;;;0.00;0.00;;;;;;;;;;1751263;28;20376;-74
2023/07/19 02:54:12;;;;;;;0.00;0.00;;;;;;;;;;1752760;28;20196;-74
2023/07/19 02:55:04;;;;;;;0.00;0.00;;;;;;;;;;1751504;28;20366;-74
2023/07/19 02:55:57;;;;;;;0.00;0.00;;;;;;;;;;1750673;28;20837;-75
2023/07/19 02:56:48;;;;;;;0.00;0.00;;;;;;;;;;1752017;28;20202;-75
2023/07/19 02:57:40;;;;;;;0.00;0.00;;;;;;;;;;1751916;28;20236;-75
2023/07/19 02:58:31;;;;;;;0.00;0.00;;;;;;;;;;1751440;28;20653;-75
2023/07/19 02:59:23;;;;;;;0.10;0.10;;;;;;;;;;1752070;28;20301;-75
2023/07/19 03:00:14;;;;;;;0.00;0.00;;;;;;;;;;1749745;28;20255;-75
2023/07/19 03:01:06;;;;;;;0.00;0.00;;;;;;;;;;1752514;28;20194;-75
2023/07/19 03:01:57;;;;;;;0.00;0.00;;;;;;;;;;1750845;28;20306;-75
2023/07/19 03:02:53;;;;;;;0.00;0.00;;;;;;;;;;1752573;28;20204;-75
2023/07/19 03:03:45;;;;;;;0.00;0.00;;;;;;;;;;1751756;28;20513;-75
2023/07/19 03:04:36;;;;;;;0.00;0.00;;;;;;;;;;1751511;28;20293;-75
2023/07/19 03:05:27;;;;;;;0.00;0.00;;;;;;;;;;1750623;28;20197;-75
2023/07/19 03:06:19;;;;;;;0.00;0.00;;;;;;;;;;1750651;28;20223;-75
2023/07/19 03:07:10;;;;;;;0.00;0.00;;;;;;;;;;1752480;28;20354;-75
2023/07/19 03:08:04;;;;;;;0.00;0.00;;;;;;;;;;1751568;28;20197;-74
2023/07/19 03:08:56;;;;;;;0.00;0.00;;;;;;;;;;1752617;28;20204;-74
2023/07/19 03:09:47;;;;;;;0.00;0.00;;;;;;;;;;1751252;28;20288;-74
2023/07/19 03:10:38;;;;;;;0.00;0.00;;;;;;;;;;1749718;28;20244;-74
2023/07/19 03:11:31;;;;;;;0.00;0.00;;;;;;;;;;1750827;28;20213;-74
2023/07/19 03:12:23;;;;;;;0.00;0.00;;;;;;;;;;1749678;28;20317;-74
2023/07/19 03:13:14;;;;;;;0.00;0.00;;;;;;;;;;1752304;28;20244;-74
2023/07/19 03:14:06;;;;;;;0.00;0.00;;;;;;;;;;1752415;28;20201;-73
2023/07/19 03:14:57;;;;;;;0.00;0.00;;;;;;;;;;1751259;28;20379;-73
2023/07/19 03:15:49;;;;;;;0.00;0.00;;;;;;;;;;1746041;28;20226;-72
2023/07/19 03:16:41;;;;;;;0.00;0.00;;;;;;;;;;1744763;28;20285;-72
2023/07/19 03:17:33;;;;;;;0.00;0.00;;;;;;;;;;1745650;28;20493;-72
2023/07/19 03:18:24;;;;;;;0.00;0.00;;;;;;;;;;1744884;28;20221;-73
2023/07/19 03:19:16;;;;;;;0.00;0.00;;;;;;;;;;1745816;28;20258;-73
2023/07/19 03:20:08;;;;;;;0.00;0.00;;;;;;;;;;1745070;28;20305;-73
2023/07/19 03:21:01;;;;;;;0.00;0.00;;;;;;;;;;1750603;28;20229;-73
2023/07/19 03:21:53;;;;;;;0.00;0.00;;;;;;;;;;1750368;28;20616;-72
2023/07/19 03:22:44;;;;;;;0.00;0.00;;;;;;;;;;1752516;28;20235;-72
2023/07/19 03:23:36;;;;;;;0.00;0.00;;;;;;;;;;1751551;28;20642;-72
2023/07/19 03:24:27;;;;;;;0.00;0.00;;;;;;;;;;1752480;28;20758;-72
2023/07/19 03:25:18;;;;;;;0.00;0.00;;;;;;;;;;1749986;28;20310;-74
2023/07/19 03:26:10;;;;;;;0.00;0.00;;;;;;;;;;1752620;28;20339;-73
2023/07/19 03:27:03;;;;;;;0.00;0.00;;;;;;;;;;1750525;28;20526;-73
2023/07/19 03:27:55;;;;;;;0.00;0.00;;;;;;;;;;1751936;28;20198;-73
2023/07/19 03:28:46;;;;;;;0.00;0.00;;;;;;;;;;1751763;28;20197;-74
2023/07/19 03:29:37;;;;;;;0.00;0.00;;;;;;;;;;1752095;28;20197;-74
2023/07/19 03:30:29;;;;;;;0.00;0.00;;;;;;;;;;1749204;28;20309;-74
2023/07/19 03:31:20;;;;;;;0.00;0.00;;;;;;;;;;1751840;28;20233;-74
2023/07/19 03:32:11;;;;;;;0.00;0.00;;;;;;;;;;1751945;28;20288;-74
2023/07/19 03:33:03;;;;;;;0.00;0.00;;;;;;;;;;1752051;28;20577;-74
2023/07/19 03:33:54;;;;;;;0.00;0.00;;;;;;;;;;1752431;28;20683;-74
2023/07/19 03:34:45;;;;;;;0.00;0.00;;;;;;;;;;1751521;28;20202;-74
2023/07/19 03:35:37;;;;;;;0.00;0.00;;;;;;;;;;1750329;28;20234;-74
2023/07/19 03:36:29;;;;;;;0.00;0.00;;;;;;;;;;1751046;28;20296;-74
2023/07/19 03:37:20;;;;;;;0.00;0.00;;;;;;;;;;1749499;28;20653;-74
2023/07/19 03:38:11;;;;;;;0.00;0.00;;;;;;;;;;1747138;28;20202;-74
2023/07/19 03:39:04;;;;;;;0.00;0.00;;;;;;;;;;1752879;28;20212;-74
2023/07/19 03:39:55;;;;;;;0.00;0.00;;;;;;;;;;1753264;28;20588;-74
2023/07/19 03:40:46;;;;;;;0.00;0.00;;;;;;;;;;1752255;28;20237;-75
2023/07/19 03:41:39;;;;;;;0.00;0.00;;;;;;;;;;1753150;28;20201;-75
2023/07/19 03:42:31;;;;;;;0.00;0.00;;;;;;;;;;1753847;28;20201;-73
2023/07/19 03:43:22;;;;;;;0.00;0.00;;;;;;;;;;1753140;28;20535;-74
2023/07/19 03:44:14;;;;;;;0.00;0.00;;;;;;;;;;1754124;28;20209;-74
2023/07/19 03:45:06;;;;;;;0.00;0.00;;;;;;;;;;1753723;28;20237;-76
2023/07/19 03:45:57;;;;;;;0.00;0.00;;;;;;;;;;1750439;28;20229;-75
2023/07/19 03:46:49;;;;;;;0.00;0.00;;;;;;;;;;1752953;28;20197;-75
2023/07/19 03:47:40;;;;;;;0.00;0.00;;;;;;;;;;1753420;28;20229;-75
2023/07/19 03:48:32;;;;;;;0.00;0.00;;;;;;;;;;1752774;28;20198;-75
2023/07/19 03:49:23;;;;;;;0.00;0.00;;;;;;;;;;1753517;28;20602;-75
2023/07/19 03:50:15;;;;;;;0.00;0.00;;;;;;;;;;1752669;28;20284;-75
2023/07/19 03:51:06;;;;;;;0.00;0.00;;;;;;;;;;1752381;28;20328;-75
2023/07/19 03:51:58;;;;;;;0.00;0.00;;;;;;;;;;1753015;28;20627;-75
2023/07/19 03:52:49;;;;;;;0.00;0.00;;;;;;;;;;1750958;28;20340;-75
2023/07/19 03:53:40;;;;;;;0.00;0.00;;;;;;;;;;1752360;28;20312;-75
2023/07/19 03:54:32;;;;;;;0.00;0.00;;;;;;;;;;1754013;28;20197;-75
2023/07/19 03:55:23;;;;;;;0.00;0.00;;;;;;;;;;1751732;28;20328;-75
2023/07/19 03:56:15;;;;;;;0.00;0.00;;;;;;;;;;1753700;28;20201;-75
2023/07/19 03:57:07;;;;;;;0.00;0.00;;;;;;;;;;1753340;28;20305;-75
2023/07/19 03:57:59;;;;;;;0.00;0.00;;;;;;;;;;1752423;28;20216;-75
2023/07/19 03:58:51;;;;;;;0.00;0.00;;;;;;;;;;1753571;28;20205;-75
2023/07/19 03:59:42;;;;;;;0.00;0.00;;;;;;;;;;1752346;28;20356;-75
2023/07/19 04:00:33;;;;;;;0.00;0.00;;;;;;;;;;1752031;28;20235;-75
2023/07/19 04:01:25;;;;;;;0.00;0.00;;;;;;;;;;1752781;28;20197;-75
2023/07/19 04:02:17;;;;;;;0.00;0.00;;;;;;;;;;1751280;28;20305;-75
2023/07/19 04:03:08;;;;;;;0.00;0.00;;;;;;;;;;1752736;28;20201;-76
2023/07/19 04:04:00;;;;;;;0.00;0.00;;;;;;;;;;1753578;28;20505;-76
2023/07/19 04:04:51;;;;;;;0.00;0.00;;;;;;;;;;1752628;28;20561;-76
2023/07/19 04:05:42;;;;;;;0.00;0.00;;;;;;;;;;1752320;28;20233;-75
2023/07/19 04:06:34;;;;;;;0.00;0.00;;;;;;;;;;1752719;28;20230;-75
2023/07/19 04:07:26;;;;;;;0.00;0.00;;;;;;;;;;1753831;28;20324;-74
2023/07/19 04:08:18;;;;;;;0.00;0.00;;;;;;;;;;1752741;28;20214;-73
2023/07/19 04:09:09;;;;;;;0.00;0.00;;;;;;;;;;1749385;28;20649;-73
2023/07/19 04:10:02;;;;;;;0.00;0.00;;;;;;;;;;1750392;28;20249;-74
2023/07/19 04:10:53;;;;;;;0.00;0.00;;;;;;;;;;1750058;28;20312;-75
2023/07/19 04:11:45;;;;;;;0.00;0.00;;;;;;;;;;1751236;28;20697;-74
2023/07/19 04:12:36;;;;;;;0.00;0.00;;;;;;;;;;1753665;28;20297;-74
2023/07/19 04:13:29;;;;;;;0.00;0.00;;;;;;;;;;1750222;28;20681;-75
2023/07/19 04:14:20;;;;;;;0.00;0.00;;;;;;;;;;1747698;28;20218;-75
2023/07/19 04:15:12;;;;;;;0.00;0.00;;;;;;;;;;1745161;28;20317;-74
2023/07/19 04:16:04;;;;;;;0.00;0.00;;;;;;;;;;1750118;28;20352;-74
2023/07/19 04:16:56;;;;;;;0.00;0.00;;;;;;;;;;1746088;28;20224;-74
2023/07/19 04:17:47;;;;;;;0.00;0.00;;;;;;;;;;1742944;28;20296;-74
2023/07/19 04:18:38;;;;;;;0.00;0.00;;;;;;;;;;1746031;28;20525;-74
2023/07/19 04:19:30;;;;;;;0.00;0.00;;;;;;;;;;1746347;28;20603;-74
2023/07/19 04:20:22;;;;;;;0.00;0.00;;;;;;;;;;1745122;28;20667;-75
2023/07/19 04:21:14;;;;;;;0.00;0.00;;;;;;;;;;1746787;28;20613;-75
2023/07/19 04:22:05;;;;;;;0.00;0.00;;;;;;;;;;1746332;28;20234;-75
2023/07/19 04:22:57;;;;;;;0.00;0.00;;;;;;;;;;1746682;28;20245;-75
2023/07/19 04:23:49;;;;;;;0.00;0.00;;;;;;;;;;1745865;28;20213;-75
2023/07/19 04:24:40;;;;;;;0.00;0.00;;;;;;;;;;1746434;28;20616;-75
2023/07/19 04:25:32;;;;;;;0.00;0.00;;;;;;;;;;1744696;28;20277;-75
2023/07/19 04:26:23;;;;;;;0.00;0.00;;;;;;;;;;1746695;28;20222;-74
2023/07/19 04:27:15;;;;;;;0.00;0.00;;;;;;;;;;1746389;28;20267;-75
2023/07/19 04:28:06;;;;;;;0.00;0.00;;;;;;;;;;1745595;28;20241;-75
2023/07/19 04:29:00;;;;;;;0.00;0.00;;;;;;;;;;1746386;28;20285;-74
2023/07/19 04:29:51;;;;;;;0.00;0.00;;;;;;;;;;1745872;28;20289;-74
2023/07/19 04:30:43;;;;;;;0.00;0.00;;;;;;;;;;1744985;28;20842;-74
2023/07/19 04:31:34;;;;;;;0.00;0.00;;;;;;;;;;1746367;28;20309;-74
2023/07/19 04:32:25;;;;;;;0.00;0.00;;;;;;;;;;1746578;28;20202;-74
2023/07/19 04:33:17;;;;;;;0.00;0.00;;;;;;;;;;1746741;28;20442;-74
2023/07/19 04:34:10;;;;;;;0.00;0.00;;;;;;;;;;1746338;28;20305;-74
2023/07/19 04:35:03;;;;;;;0.00;0.00;;;;;;;;;;1746072;28;20206;-74
2023/07/19 04:35:54;;;;;;;0.00;0.00;;;;;;;;;;1744776;28;20309;-75
2023/07/19 04:36:48;;;;;;;0.00;0.00;;;;;;;;;;1746436;28;20281;-75
2023/07/19 04:37:39;;;;;;;0.00;0.00;;;;;;;;;;1746826;28;20241;-75
2023/07/19 04:38:32;;;;;;;0.00;0.00;;;;;;;;;;1746192;28;20227;-75
2023/07/19 04:39:23;;;;;;;0.00;0.00;;;;;;;;;;1746645;28;20199;-75
2023/07/19 04:40:14;;;;;;;0.00;0.00;;;;;;;;;;1745868;28;20509;-74
2023/07/19 04:41:06;;;;;;;0.00;0.00;;;;;;;;;;1745775;28;20234;-74
2023/07/19 04:41:57;;;;;;;0.00;0.00;;;;;;;;;;1746467;28;20248;-74
2023/07/19 04:42:50;;;;;;;0.00;0.00;;;;;;;;;;1746885;28;20631;-74
2023/07/19 04:43:41;;;;;;;0.00;0.00;;;;;;;;;;1746585;28;20209;-74
2023/07/19 04:44:34;;;;;;;0.00;0.00;;;;;;;;;;1746807;28;20632;-74
2023/07/19 04:45:26;;;;;;;0.00;0.00;;;;;;;;;;1745323;28;20244;-75
2023/07/19 04:46:18;;;;;;;0.00;0.00;;;;;;;;;;1746890;28;20356;-75
2023/07/19 04:47:10;;;;;;;0.00;0.00;;;;;;;;;;1746124;28;20233;-75
2023/07/19 04:48:03;;;;;;;0.00;0.00;;;;;;;;;;1746705;28;20451;-75
2023/07/19 04:48:54;;;;;;;0.00;0.00;;;;;;;;;;1746400;28;20260;-76
2023/07/19 04:49:46;;;;;;;0.00;0.00;;;;;;;;;;1746233;28;20202;-76
2023/07/19 04:50:37;;;;;;;0.00;0.00;;;;;;;;;;1741307;28;20316;-76
2023/07/19 04:51:29;;;;;;;0.00;0.00;;;;;;;;;;1746515;28;20695;-75
2023/07/19 04:52:20;;;;;;;0.00;0.00;;;;;;;;;;1747027;28;20332;-76
2023/07/19 04:53:12;;;;;;;0.00;0.00;;;;;;;;;;1742620;28;20198;-75
2023/07/19 04:54:04;;;;;;;0.00;0.00;;;;;;;;;;1746523;28;20329;-76
2023/07/19 04:54:56;;;;;;;0.00;0.00;;;;;;;;;;1746110;28;20624;-75
2023/07/19 04:55:48;;;;;;;0.00;0.00;;;;;;;;;;1745344;28;20317;-76
2023/07/19 04:56:40;;;;;;;0.00;0.00;;;;;;;;;;1745963;28;20285;-76
2023/07/19 04:57:31;;;;;;;0.00;0.00;;;;;;;;;;1746634;28;20352;-76
2023/07/19 04:58:22;;;;;;;0.00;0.00;;;;;;;;;;1746123;28;20674;-76
2023/07/19 04:59:14;;;;;;;0.00;0.00;;;;;;;;;;1746007;28;20209;-76
2023/07/19 05:00:11;;;;;;;0.00;0.00;;;;;;;;;;1746235;28;20297;-76
2023/07/19 05:01:05;;;;;;;0.00;0.00;;;;;;;;;;1744699;28;20636;-75
2023/07/19 05:01:56;;;;;;;0.00;0.00;;;;;;;;;;1746013;28;20213;-76
2023/07/19 05:02:48;;;;;;;0.00;0.00;;;;;;;;;;1746712;28;20640;-76
2023/07/19 05:03:39;;;;;;;0.00;0.00;;;;;;;;;;1745866;28;20293;-76
2023/07/19 05:04:31;;;;;;;0.00;0.00;;;;;;;;;;1746496;28;20238;-76
2023/07/19 05:05:22;;;;;;;0.00;0.00;;;;;;;;;;1745464;28;20210;-75
2023/07/19 05:06:14;;;;;;;0.00;0.00;;;;;;;;;;1753419;28;20647;-75
2023/07/19 05:07:05;;;;;;;0.00;0.00;;;;;;;;;;1752812;28;20692;-75
2023/07/19 05:07:57;;;;;;;0.00;0.00;;;;;;;;;;1753382;28;20258;-75
2023/07/19 05:08:48;;;;;;;0.00;0.00;;;;;;;;;;1753160;28;20198;-75
2023/07/19 05:09:40;;;;;;;0.00;0.00;;;;;;;;;;1752694;28;20410;-75